createdAt,value
2023-01-18T00:01:20.325Z,26.50
2023-01-18T00:03:48.159Z,24.93
2023-01-18T00:06:16.616Z,29.87
2023-01-18T00:08:43.822Z,30.97
2023-01-18T00:11:17.221Z,30.00
2023-01-18T00:13:44.565Z,31.17
2023-01-18T00:16:15.500Z,32.63
2023-01-18T00:18:43.366Z,31.73
2023-01-18T00:21:12.161Z,31.37
2023-01-18T00:23:40.000Z,29.57
2023-01-18T00:26:09.905Z,33.73
2023-01-18T00:28:38.155Z,35.93
2023-01-18T00:31:18.186Z,45.33
2023-01-18T00:33:47.382Z,51.37
2023-01-18T00:36:16.004Z,60.87
2023-01-18T00:38:44.152Z,53.83
2023-01-18T00:41:12.168Z,54.73
2023-01-18T00:43:40.467Z,52.43
2023-01-18T00:46:13.861Z,56.73
2023-01-18T00:48:42.559Z,45.80
2023-01-18T00:51:13.203Z,44.53
2023-01-18T00:53:41.222Z,42.23
2023-01-18T00:56:11.129Z,41.43
2023-01-18T00:58:38.756Z,44.20
2023-01-18T01:01:07.842Z,43.60
2023-01-18T01:03:53.795Z,42.33
2023-01-18T01:06:46.107Z,42.67
2023-01-18T01:09:27.388Z,45.93
2023-01-18T01:12:14.442Z,41.47
2023-01-18T01:15:03.116Z,42.10
2023-01-18T01:17:51.920Z,41.63
2023-01-18T01:20:38.324Z,41.50
2023-01-18T01:23:34.760Z,43.50
2023-01-18T01:26:06.327Z,44.33
2023-01-18T01:28:45.356Z,42.97
2023-01-18T01:31:15.459Z,41.93
2023-01-18T01:33:43.663Z,41.17
2023-01-18T01:36:12.937Z,42.70
2023-01-18T01:38:44.074Z,45.87
2023-01-18T01:41:29.123Z,45.43
2023-01-18T01:43:58.954Z,56.67
2023-01-18T01:46:46.570Z,58.07
2023-01-18T01:49:16.032Z,40.10
2023-01-18T01:51:46.219Z,35.73
2023-01-18T01:54:49.651Z,36.40
2023-01-18T01:57:25.215Z,45.57
2023-01-18T01:59:58.984Z,44.33
2023-01-18T02:02:26.671Z,40.93
2023-01-18T02:04:55.567Z,43.43
2023-01-18T02:07:26.296Z,42.07
2023-01-18T02:09:54.400Z,40.90
2023-01-18T02:12:22.378Z,41.03
2023-01-18T02:14:49.785Z,41.30
2023-01-18T02:17:16.893Z,39.30
2023-01-18T02:20:19.652Z,40.43
2023-01-18T02:23:21.519Z,41.00
2023-01-18T02:26:13.092Z,38.80
2023-01-18T02:28:44.703Z,36.40
2023-01-18T02:31:18.904Z,39.20
2023-01-18T02:34:02.943Z,38.90
2023-01-18T02:36:57.255Z,42.70
2023-01-18T02:39:42.510Z,40.50
2023-01-18T02:42:40.115Z,41.03
2023-01-18T02:45:40.455Z,38.53
2023-01-18T02:48:10.340Z,38.47
2023-01-18T02:50:37.823Z,39.93
2023-01-18T02:53:05.272Z,35.60
2023-01-18T02:55:50.758Z,39.23
2023-01-18T02:58:39.726Z,37.80
2023-01-18T03:01:23.023Z,36.60
2023-01-18T03:03:52.085Z,34.80
2023-01-18T03:06:22.061Z,36.57
2023-01-18T03:08:52.732Z,43.23
2023-01-18T03:11:50.045Z,41.50
2023-01-18T03:14:50.111Z,34.93
2023-01-18T03:17:39.430Z,38.83
2023-01-18T03:20:11.990Z,55.10
2023-01-18T03:23:22.148Z,48.60
2023-01-18T03:25:52.130Z,45.07
2023-01-18T03:28:41.626Z,38.17
2023-01-18T03:31:35.713Z,34.70
2023-01-18T03:34:14.319Z,32.90
2023-01-18T03:36:49.400Z,33.93
2023-01-18T03:39:40.387Z,34.23
2023-01-18T03:42:18.871Z,34.90
2023-01-18T03:44:58.284Z,34.47
2023-01-18T03:47:26.002Z,34.00
2023-01-18T03:49:53.536Z,34.37
2023-01-18T03:52:24.909Z,34.73
2023-01-18T03:54:54.865Z,35.63
2023-01-18T03:57:33.054Z,36.03
2023-01-18T04:00:01.651Z,35.17
2023-01-18T04:02:29.495Z,35.33
2023-01-18T04:04:58.558Z,41.77
2023-01-18T04:07:26.219Z,45.37
2023-01-18T04:09:53.575Z,44.57
2023-01-18T04:12:21.004Z,43.30
2023-01-18T04:14:48.154Z,42.77
2023-01-18T04:17:15.917Z,39.53
2023-01-18T04:19:43.474Z,39.90
2023-01-18T04:22:11.365Z,39.80
2023-01-18T04:24:38.944Z,44.30
2023-01-18T04:27:06.372Z,41.83
2023-01-18T04:29:33.610Z,44.17
2023-01-18T04:32:01.091Z,53.87
2023-01-18T04:34:28.348Z,60.27
2023-01-18T04:36:56.431Z,58.00
2023-01-18T04:39:23.600Z,61.60
2023-01-18T04:41:51.175Z,77.80
2023-01-18T04:44:18.357Z,117.90
2023-01-18T04:46:45.942Z,137.97
2023-01-18T04:49:15.635Z,152.47
2023-01-18T04:51:45.289Z,143.63
2023-01-18T04:54:15.607Z,164.83
2023-01-18T04:56:43.152Z,180.60
2023-01-18T04:59:15.920Z,172.20
2023-01-18T05:01:43.961Z,118.53
2023-01-18T05:04:11.651Z,88.17
2023-01-18T05:06:39.561Z,75.73
2023-01-18T05:09:07.270Z,70.70
2023-01-18T05:11:35.081Z,67.43
2023-01-18T05:14:02.734Z,67.67
2023-01-18T05:16:30.670Z,64.43
2023-01-18T05:18:58.398Z,63.53
2023-01-18T05:21:26.552Z,63.00
2023-01-18T05:23:54.875Z,58.97
2023-01-18T05:26:23.898Z,61.63
2023-01-18T05:28:51.819Z,58.60
2023-01-18T05:31:21.396Z,60.20
2023-01-18T05:33:49.319Z,57.73
2023-01-18T05:36:17.305Z,56.23
2023-01-18T05:38:44.872Z,56.63
2023-01-18T05:41:12.695Z,54.53
2023-01-18T05:43:40.624Z,49.73
2023-01-18T05:46:08.644Z,53.80
2023-01-18T05:48:36.394Z,55.83
2023-01-18T05:51:09.384Z,54.70
2023-01-18T05:53:37.139Z,59.63
2023-01-18T05:56:06.641Z,61.90
2023-01-18T05:58:34.722Z,62.20
2023-01-18T06:01:02.637Z,79.30
2023-01-18T06:03:30.355Z,78.27
2023-01-18T06:05:59.384Z,63.30
2023-01-18T06:08:27.000Z,66.93
2023-01-18T06:10:55.869Z,71.03
2023-01-18T06:13:24.469Z,83.53
2023-01-18T06:15:54.755Z,74.97
2023-01-18T06:18:22.934Z,85.27
2023-01-18T06:20:51.736Z,72.80
2023-01-18T06:23:19.493Z,68.83
2023-01-18T06:25:47.404Z,65.77
2023-01-18T06:28:15.044Z,55.67
2023-01-18T06:30:43.134Z,51.97
2023-01-18T06:33:10.882Z,55.13
2023-01-18T06:35:38.965Z,55.97
2023-01-18T06:38:06.653Z,52.33
2023-01-18T06:40:34.596Z,54.00
2023-01-18T06:43:02.388Z,56.67
2023-01-18T06:45:30.534Z,58.20
2023-01-18T06:47:58.221Z,61.37
2023-01-18T06:50:26.270Z,67.03
2023-01-18T06:52:55.935Z,66.63
2023-01-18T06:55:24.250Z,67.90
2023-01-18T06:57:51.839Z,75.87
2023-01-18T07:00:20.030Z,92.37
2023-01-18T07:02:47.687Z,92.03
2023-01-18T07:05:15.895Z,107.93
2023-01-18T07:07:43.546Z,128.37
2023-01-18T07:10:11.628Z,134.80
2023-01-18T07:12:39.209Z,138.53
2023-01-18T07:15:20.884Z,135.70
2023-01-18T07:17:50.581Z,121.27
2023-01-18T07:20:19.985Z,107.70
2023-01-18T07:22:51.921Z,110.90
2023-01-18T07:25:20.929Z,97.03
2023-01-18T07:27:49.259Z,105.83
2023-01-18T07:30:17.759Z,106.77
2023-01-18T07:32:51.216Z,119.93
2023-01-18T07:35:22.225Z,143.20
2023-01-18T07:37:52.436Z,151.37
2023-01-18T07:40:23.197Z,141.63
2023-01-18T07:42:57.419Z,138.70
2023-01-18T07:45:25.808Z,114.90
2023-01-18T07:47:53.638Z,106.33
2023-01-18T07:50:22.578Z,97.17
2023-01-18T07:52:50.366Z,92.03
2023-01-18T07:55:18.418Z,95.47
2023-01-18T07:57:46.122Z,107.17
2023-01-18T08:00:14.989Z,113.00
2023-01-18T08:02:42.883Z,114.97
2023-01-18T08:05:11.764Z,110.47
2023-01-18T08:07:39.531Z,121.00
2023-01-18T08:10:07.749Z,124.87
2023-01-18T08:12:35.539Z,148.47
2023-01-18T08:15:04.634Z,145.93
2023-01-18T08:17:32.298Z,127.23
2023-01-18T08:20:00.436Z,114.27
2023-01-18T08:22:28.206Z,105.87
2023-01-18T08:24:56.112Z,129.40
2023-01-18T08:27:25.777Z,137.10
2023-01-18T08:29:55.257Z,148.30
2023-01-18T08:32:23.981Z,142.47
2023-01-18T08:34:52.789Z,161.70
2023-01-18T08:37:20.442Z,187.10
2023-01-18T08:39:48.331Z,175.73
2023-01-18T08:42:16.285Z,174.13
2023-01-18T08:44:44.237Z,173.83
2023-01-18T08:47:12.171Z,192.30
2023-01-18T08:49:40.315Z,190.93
2023-01-18T08:52:10.944Z,160.53
2023-01-18T08:54:38.960Z,154.00
2023-01-18T08:57:08.097Z,138.97
2023-01-18T08:59:36.224Z,124.43
2023-01-18T09:02:03.912Z,102.73
2023-01-18T09:04:31.908Z,92.87
2023-01-18T09:06:59.869Z,84.60
2023-01-18T09:09:27.869Z,70.97
2023-01-18T09:11:57.089Z,65.50
2023-01-18T09:14:24.995Z,66.87
2023-01-18T09:16:52.685Z,64.20
2023-01-18T09:19:20.609Z,58.33
2023-01-18T09:21:49.955Z,61.37
2023-01-18T09:24:18.211Z,59.70
2023-01-18T09:26:47.431Z,56.37
2023-01-18T09:29:16.489Z,61.33
2023-01-18T09:31:44.201Z,73.60
2023-01-18T09:34:19.305Z,52.10
2023-01-18T09:36:51.102Z,41.27
2023-01-18T09:39:22.918Z,36.97
2023-01-18T09:41:55.663Z,38.17
2023-01-18T09:44:34.256Z,38.33
2023-01-18T09:47:03.077Z,37.33
2023-01-18T09:49:55.183Z,34.07
2023-01-18T09:52:29.320Z,33.80
2023-01-18T09:55:03.842Z,33.70
2023-01-18T09:57:45.982Z,32.17
2023-01-18T10:00:19.895Z,49.67
2023-01-18T10:02:49.232Z,42.23
2023-01-18T10:05:37.263Z,76.53
2023-01-18T10:08:13.642Z,51.20
2023-01-18T10:10:52.425Z,45.43
2023-01-18T10:13:23.358Z,59.07
2023-01-18T10:15:51.940Z,69.37
2023-01-18T10:18:20.766Z,73.27
2023-01-18T10:20:49.454Z,72.10
2023-01-18T10:23:49.236Z,67.87
2023-01-18T10:26:28.027Z,40.67
2023-01-18T10:29:02.675Z,32.83
2023-01-18T10:32:00.546Z,30.57
2023-01-18T10:34:32.640Z,29.83
2023-01-18T10:37:15.011Z,29.57
2023-01-18T10:39:51.890Z,32.77
2023-01-18T10:42:25.867Z,34.13
2023-01-18T10:44:53.621Z,32.10
2023-01-18T10:47:22.355Z,31.47
2023-01-18T10:49:59.278Z,33.20
2023-01-18T10:52:28.926Z,33.93
2023-01-18T10:55:03.911Z,35.80
2023-01-18T10:57:35.123Z,37.17
2023-01-18T11:00:03.813Z,32.00
2023-01-18T11:02:35.577Z,30.60
2023-01-18T11:05:21.315Z,31.13
2023-01-18T11:08:23.164Z,33.13
2023-01-18T11:11:01.620Z,30.73
2023-01-18T11:13:34.381Z,30.63
2023-01-18T11:16:22.601Z,31.63
2023-01-18T11:19:00.067Z,31.50
2023-01-18T11:21:30.774Z,33.17
2023-01-18T11:23:58.899Z,33.10
2023-01-18T11:26:29.579Z,32.40
2023-01-18T11:29:07.459Z,33.00
2023-01-18T11:31:48.516Z,33.77
2023-01-18T11:34:22.933Z,36.03
2023-01-18T11:36:50.952Z,36.23
2023-01-18T11:39:28.190Z,41.00
2023-01-18T11:42:11.316Z,42.03
2023-01-18T11:44:43.260Z,39.70
2023-01-18T11:47:16.126Z,43.90
2023-01-18T11:49:47.385Z,40.10
2023-01-18T11:52:22.971Z,39.97
2023-01-18T11:54:54.231Z,42.17
2023-01-18T11:57:21.947Z,42.90
2023-01-18T11:59:49.906Z,37.30
2023-01-18T12:02:23.636Z,41.17
2023-01-18T12:05:12.073Z,43.80
2023-01-18T12:07:44.765Z,54.13
2023-01-18T12:10:22.326Z,48.93
2023-01-18T12:12:59.475Z,48.83
2023-01-18T12:15:42.806Z,63.83
2023-01-18T12:18:22.672Z,54.43
2023-01-18T12:21:02.708Z,48.90
2023-01-18T12:23:33.451Z,46.60
2023-01-18T12:26:12.658Z,46.43
2023-01-18T12:29:09.784Z,49.37
2023-01-18T12:31:38.432Z,47.07
2023-01-18T12:34:10.269Z,49.37
2023-01-18T12:36:54.832Z,50.00
2023-01-18T12:39:40.630Z,47.03
2023-01-18T12:42:15.361Z,44.00
2023-01-18T12:45:07.559Z,44.57
2023-01-18T12:47:40.777Z,41.47
2023-01-18T12:50:09.371Z,39.73
2023-01-18T12:52:41.387Z,37.20
2023-01-18T12:55:16.544Z,39.00
2023-01-18T12:57:46.678Z,40.50
2023-01-18T13:00:21.386Z,39.43
2023-01-18T13:02:56.182Z,56.47
2023-01-18T13:05:43.617Z,53.07
2023-01-18T13:15:27.161Z,46.50
2023-01-18T13:17:59.369Z,43.47
2023-01-18T13:20:35.572Z,41.87
2023-01-18T13:23:03.703Z,45.97
2023-01-18T13:26:02.431Z,41.07
2023-01-18T13:28:30.578Z,43.60
2023-01-18T13:31:02.252Z,50.90
2023-01-18T13:33:39.633Z,44.33
2023-01-18T13:36:12.570Z,41.17
2023-01-18T13:39:07.826Z,41.80
2023-01-18T13:41:36.778Z,42.70
2023-01-18T13:44:06.382Z,62.17
2023-01-18T13:46:39.707Z,63.90
2023-01-18T13:49:36.675Z,60.83
2023-01-18T13:52:34.789Z,65.27
2023-01-18T13:55:06.840Z,68.00
2023-01-18T13:57:35.474Z,61.50
2023-01-18T14:00:05.746Z,70.63
2023-01-18T14:02:45.442Z,72.80
2023-01-18T14:05:20.231Z,72.83
2023-01-18T14:07:50.190Z,66.77
2023-01-18T14:10:25.504Z,69.10
2023-01-18T14:12:55.415Z,81.10
2023-01-18T14:15:46.621Z,76.17
2023-01-18T14:18:25.025Z,73.57
2023-01-18T14:21:09.323Z,131.90
2023-01-18T14:23:56.378Z,126.13
2023-01-18T14:26:28.651Z,135.30
2023-01-18T14:29:00.616Z,130.87
2023-01-18T14:31:38.311Z,133.83
2023-01-18T14:34:25.785Z,150.13
2023-01-18T14:36:53.562Z,112.33
2023-01-18T14:39:23.230Z,105.60
2023-01-18T14:42:05.860Z,108.77
2023-01-18T14:44:33.873Z,102.87
2023-01-18T14:47:18.622Z,100.43
2023-01-18T14:49:51.148Z,100.37
2023-01-18T14:52:19.545Z,104.37
2023-01-18T14:54:51.119Z,139.63
2023-01-18T14:57:19.220Z,135.97
2023-01-18T14:59:52.600Z,123.17
2023-01-18T15:02:25.323Z,118.53
2023-01-18T15:05:11.107Z,120.07
2023-01-18T15:07:39.881Z,130.40
2023-01-18T15:10:08.671Z,127.70
2023-01-18T15:12:36.821Z,130.47
2023-01-18T15:15:07.610Z,124.13
2023-01-18T15:17:37.187Z,144.27
2023-01-18T15:20:07.543Z,131.90
2023-01-18T15:22:38.100Z,150.00
2023-01-18T15:25:08.430Z,143.13
2023-01-18T15:27:36.974Z,134.07
2023-01-18T15:30:12.624Z,137.73
2023-01-18T15:32:41.043Z,116.07
2023-01-18T15:35:13.866Z,105.43
2023-01-18T15:37:42.199Z,113.00
2023-01-18T15:40:13.253Z,108.03
2023-01-18T15:42:46.349Z,121.63
2023-01-18T15:45:22.418Z,112.13
2023-01-18T15:47:54.500Z,110.93
2023-01-18T15:50:24.348Z,102.53
2023-01-18T15:53:02.154Z,85.47
2023-01-18T15:55:32.808Z,84.80
2023-01-18T15:58:12.847Z,72.47
2023-01-18T16:00:43.479Z,132.27
2023-01-18T16:03:22.390Z,129.90
2023-01-18T16:05:57.569Z,131.33
2023-01-18T16:08:25.676Z,145.00
2023-01-18T16:10:54.851Z,139.27
2023-01-18T16:13:28.735Z,138.43
2023-01-18T16:16:02.763Z,139.43
2023-01-18T16:18:30.619Z,148.43
2023-01-18T16:20:59.963Z,145.80
2023-01-18T16:23:28.067Z,129.77
2023-01-18T16:26:02.876Z,129.97
2023-01-18T16:28:30.569Z,146.60
2023-01-18T16:31:03.536Z,171.27
2023-01-18T16:33:31.636Z,197.93
2023-01-18T16:35:59.835Z,189.00
2023-01-18T16:38:27.470Z,186.37
2023-01-18T16:40:55.512Z,169.13
2023-01-18T16:43:24.433Z,159.03
2023-01-18T16:45:53.530Z,139.20
2023-01-18T16:48:26.928Z,122.00
2023-01-18T16:51:00.586Z,108.93
2023-01-18T16:53:29.068Z,104.40
2023-01-18T16:55:57.460Z,98.43
2023-01-18T16:58:26.488Z,87.13
2023-01-18T17:01:03.324Z,87.67
2023-01-18T17:03:31.142Z,74.27
2023-01-18T17:05:59.201Z,78.40
2023-01-18T17:08:26.928Z,73.33
2023-01-18T17:10:55.132Z,67.80
2023-01-18T17:13:23.903Z,68.63
2023-01-18T17:15:52.858Z,85.30
2023-01-18T17:18:24.065Z,83.70
2023-01-18T17:20:52.664Z,96.33
2023-01-18T17:23:20.825Z,122.50
2023-01-18T17:25:49.450Z,146.70
2023-01-18T17:28:18.596Z,155.83
2023-01-18T17:30:48.387Z,143.90
2023-01-18T17:33:18.207Z,120.23
2023-01-18T17:35:46.644Z,73.27
2023-01-18T17:38:23.125Z,66.77
2023-01-18T17:40:52.141Z,70.13
2023-01-18T17:43:32.214Z,61.10
2023-01-18T17:46:03.670Z,57.80
2023-01-18T17:48:31.518Z,60.10
2023-01-18T17:50:59.530Z,56.23
2023-01-18T17:53:27.655Z,65.37
2023-01-18T17:55:56.869Z,76.13
2023-01-18T17:58:24.810Z,65.83
2023-01-18T18:00:53.128Z,62.83
2023-01-18T18:03:20.850Z,59.03
2023-01-18T18:05:49.122Z,52.97
2023-01-18T18:08:18.440Z,53.70
2023-01-18T18:10:46.387Z,52.03
2023-01-18T18:13:14.036Z,52.03
2023-01-18T18:15:46.047Z,53.03
2023-01-18T18:18:22.662Z,55.10
2023-01-18T18:21:03.317Z,57.40
2023-01-18T18:23:31.565Z,55.87
2023-01-18T18:26:00.259Z,54.20
2023-01-18T18:28:29.660Z,52.03
2023-01-18T18:30:58.726Z,50.67
2023-01-18T18:33:27.379Z,43.23
2023-01-18T18:35:55.664Z,40.83
2023-01-18T18:38:23.879Z,38.00
2023-01-18T18:40:52.249Z,36.27
2023-01-18T18:43:20.855Z,38.40
2023-01-18T18:45:49.305Z,37.13
2023-01-18T18:48:17.101Z,38.90
2023-01-18T18:50:48.030Z,38.23
2023-01-18T18:53:16.889Z,40.90
2023-01-18T18:55:45.613Z,41.73
2023-01-18T18:58:13.485Z,43.50
2023-01-18T19:00:41.457Z,50.03
2023-01-18T19:03:09.821Z,49.77
2023-01-18T19:05:39.573Z,53.87
2023-01-18T19:08:07.430Z,61.73
2023-01-18T19:10:35.466Z,53.93
2023-01-18T19:13:05.008Z,52.17
2023-01-18T19:15:33.129Z,50.93
2023-01-18T19:18:00.811Z,47.83
2023-01-18T19:20:29.035Z,46.50
2023-01-18T19:22:57.063Z,43.90
2023-01-18T19:25:26.088Z,45.13
2023-01-18T19:27:54.064Z,45.37
2023-01-18T19:30:22.630Z,42.87
2023-01-18T19:32:51.035Z,39.90
2023-01-18T19:35:20.066Z,40.57
2023-01-18T19:37:48.384Z,41.57
2023-01-18T19:40:17.816Z,38.17
2023-01-18T19:42:47.207Z,39.23
2023-01-18T19:45:23.133Z,39.00
2023-01-18T19:47:55.745Z,38.70
2023-01-18T19:50:24.266Z,37.97
2023-01-18T19:52:52.540Z,44.77
2023-01-18T19:55:21.881Z,45.53
2023-01-18T19:57:52.522Z,39.27
2023-01-18T20:00:21.453Z,35.27
2023-01-18T20:02:49.632Z,39.90
2023-01-18T20:05:18.379Z,40.67
2023-01-18T20:07:46.485Z,36.50
2023-01-18T20:10:16.847Z,37.23
2023-01-18T20:12:45.150Z,35.87
2023-01-18T20:15:15.876Z,35.83
2023-01-18T20:17:44.859Z,36.00
2023-01-18T20:20:20.978Z,37.77
2023-01-18T20:22:55.493Z,34.93
2023-01-18T20:25:24.543Z,36.53
2023-01-18T20:27:52.553Z,36.70
2023-01-18T20:30:20.981Z,36.80
2023-01-18T20:32:49.233Z,36.93
2023-01-18T20:35:18.129Z,35.03
2023-01-18T20:37:46.045Z,33.57
2023-01-18T20:40:15.875Z,34.47
2023-01-18T20:42:45.210Z,36.00
2023-01-18T20:45:15.058Z,37.47
2023-01-18T20:47:44.914Z,35.93
2023-01-18T20:50:13.477Z,33.83
2023-01-18T20:52:42.292Z,34.27
2023-01-18T20:55:13.538Z,34.00
2023-01-18T20:57:42.194Z,33.83
2023-01-18T21:00:12.738Z,33.17
2023-01-18T21:02:43.077Z,36.03
2023-01-18T21:05:12.693Z,46.00
2023-01-18T21:07:41.840Z,51.10
2023-01-18T21:10:11.684Z,54.30
2023-01-18T21:12:41.509Z,43.87
2023-01-18T21:15:10.402Z,38.67
2023-01-18T21:17:40.442Z,35.97
2023-01-18T21:20:09.191Z,34.90
2023-01-18T21:22:37.677Z,33.23
2023-01-18T21:25:06.224Z,35.03
2023-01-18T21:27:36.214Z,32.97
2023-01-18T21:30:05.043Z,32.93
2023-01-18T21:32:32.985Z,33.10
2023-01-18T21:35:01.128Z,33.60
2023-01-18T21:37:28.977Z,30.40
2023-01-18T21:39:58.370Z,31.90
2023-01-18T21:42:45.073Z,36.60
2023-01-18T21:45:32.334Z,36.33
2023-01-18T21:48:01.147Z,34.90
2023-01-18T21:50:48.280Z,32.27
2023-01-18T21:53:35.334Z,31.27
2023-01-18T21:56:03.832Z,33.83
2023-01-18T21:58:50.952Z,31.83
2023-01-18T22:01:22.346Z,33.53
2023-01-18T22:04:12.912Z,34.77
2023-01-18T22:06:41.497Z,34.00
2023-01-18T22:09:09.321Z,34.70
2023-01-18T22:11:37.860Z,36.53
2023-01-18T22:14:06.772Z,39.47
2023-01-18T22:16:35.347Z,37.93
2023-01-18T22:19:05.079Z,36.33
2023-01-18T22:21:33.712Z,35.13
2023-01-18T22:24:01.614Z,35.10
2023-01-18T22:26:30.612Z,33.97
2023-01-18T22:28:58.526Z,32.93
2023-01-18T22:31:27.355Z,33.40
2023-01-18T22:33:56.115Z,31.17
2023-01-18T22:36:24.627Z,33.43
2023-01-18T22:38:54.071Z,33.50
2023-01-18T22:41:23.833Z,33.37
2023-01-18T22:43:51.840Z,35.83
2023-01-18T22:46:20.720Z,32.63
2023-01-18T22:48:48.833Z,33.93
2023-01-18T22:51:17.972Z,32.33
2023-01-18T22:53:45.954Z,35.03
2023-01-18T22:56:15.491Z,33.73
2023-01-18T22:58:43.680Z,37.80
2023-01-18T23:01:19.366Z,45.10
2023-01-18T23:03:47.275Z,46.67
2023-01-18T23:06:15.667Z,44.03
2023-01-18T23:08:43.610Z,48.17
2023-01-18T23:11:19.487Z,48.63
2023-01-18T23:14:10.709Z,48.20
2023-01-18T23:16:58.114Z,44.77
2023-01-18T23:19:28.141Z,44.03
2023-01-18T23:21:57.616Z,45.33
2023-01-18T23:24:25.834Z,42.63
2023-01-18T23:26:53.915Z,41.87
2023-01-18T23:29:21.560Z,40.60
2023-01-18T23:31:49.614Z,42.30
2023-01-18T23:34:17.506Z,40.17
2023-01-18T23:36:45.476Z,40.27
2023-01-18T23:39:31.639Z,39.47
2023-01-18T23:42:18.543Z,41.47
2023-01-18T23:45:04.913Z,39.73
2023-01-18T23:47:51.431Z,37.83
2023-01-18T23:50:37.682Z,37.13
2023-01-18T23:53:24.633Z,38.67
2023-01-18T23:55:53.273Z,34.70
2023-01-18T23:58:21.275Z,38.87
